sensor_id;sensor_type;location;lat;lon;timestamp;temperature;humidity
16627;DHT22;8427;52.204;7.202;2023-08-06T00:00:04;14.40;91.60
16627;DHT22;8427;52.204;7.202;2023-08-06T00:02:32;14.40;91.60
16627;DHT22;8427;52.204;7.202;2023-08-06T00:05:00;14.40;91.60
16627;DHT22;8427;52.204;7.202;2023-08-06T00:07:30;14.40;91.60
16627;DHT22;8427;52.204;7.202;2023-08-06T00:09:58;14.30;91.50
16627;DHT22;8427;52.204;7.202;2023-08-06T00:12:26;14.30;91.80
16627;DHT22;8427;52.204;7.202;2023-08-06T00:14:54;14.30;91.80
16627;DHT22;8427;52.204;7.202;2023-08-06T00:17:22;14.30;92.10
16627;DHT22;8427;52.204;7.202;2023-08-06T00:19:50;14.30;92.10
16627;DHT22;8427;52.204;7.202;2023-08-06T00:22:18;14.40;92.10
16627;DHT22;8427;52.204;7.202;2023-08-06T00:24:47;14.30;92.20
16627;DHT22;8427;52.204;7.202;2023-08-06T00:27:15;14.30;92.20
16627;DHT22;8427;52.204;7.202;2023-08-06T00:29:43;14.30;92.20
16627;DHT22;8427;52.204;7.202;2023-08-06T00:32:11;14.30;92.30
16627;DHT22;8427;52.204;7.202;2023-08-06T00:34:39;14.40;92.30
16627;DHT22;8427;52.204;7.202;2023-08-06T00:37:07;14.30;92.20
16627;DHT22;8427;52.204;7.202;2023-08-06T00:39:35;14.40;92.30
16627;DHT22;8427;52.204;7.202;2023-08-06T00:42:05;14.30;92.30
16627;DHT22;8427;52.204;7.202;2023-08-06T00:44:33;14.40;92.30
16627;DHT22;8427;52.204;7.202;2023-08-06T00:47:01;14.40;92.40
16627;DHT22;8427;52.204;7.202;2023-08-06T00:49:30;14.40;92.30
16627;DHT22;8427;52.204;7.202;2023-08-06T00:52:00;14.40;92.30
16627;DHT22;8427;52.204;7.202;2023-08-06T00:54:29;14.40;92.20
16627;DHT22;8427;52.204;7.202;2023-08-06T00:56:57;14.60;92.30
16627;DHT22;8427;52.204;7.202;2023-08-06T00:59:27;14.60;92.20
16627;DHT22;8427;52.204;7.202;2023-08-06T01:01:55;14.50;92.10
16627;DHT22;8427;52.204;7.202;2023-08-06T01:04:23;14.60;92.10
16627;DHT22;8427;52.204;7.202;2023-08-06T01:07:09;14.50;92.10
16627;DHT22;8427;52.204;7.202;2023-08-06T01:09:48;14.50;92.10
16627;DHT22;8427;52.204;7.202;2023-08-06T01:12:24;14.60;92.10
16627;DHT22;8427;52.204;7.202;2023-08-06T01:15:02;14.50;92.20
16627;DHT22;8427;52.204;7.202;2023-08-06T01:17:36;14.50;92.10
16627;DHT22;8427;52.204;7.202;2023-08-06T01:20:05;14.60;92.10
16627;DHT22;8427;52.204;7.202;2023-08-06T01:22:34;14.60;92.10
16627;DHT22;8427;52.204;7.202;2023-08-06T01:25:02;14.60;92.10
16627;DHT22;8427;52.204;7.202;2023-08-06T01:27:36;14.50;92.10
16627;DHT22;8427;52.204;7.202;2023-08-06T01:30:09;14.50;92.30
16627;DHT22;8427;52.204;7.202;2023-08-06T01:32:43;14.40;92.20
16627;DHT22;8427;52.204;7.202;2023-08-06T01:35:16;14.40;92.30
16627;DHT22;8427;52.204;7.202;2023-08-06T01:37:46;14.50;92.20
16627;DHT22;8427;52.204;7.202;2023-08-06T01:40:15;14.50;92.30
16627;DHT22;8427;52.204;7.202;2023-08-06T01:42:43;14.30;92.30
16627;DHT22;8427;52.204;7.202;2023-08-06T01:45:11;14.30;92.20
16627;DHT22;8427;52.204;7.202;2023-08-06T01:47:39;14.30;92.40
16627;DHT22;8427;52.204;7.202;2023-08-06T01:50:08;14.30;92.40
16627;DHT22;8427;52.204;7.202;2023-08-06T01:52:36;14.20;92.60
16627;DHT22;8427;52.204;7.202;2023-08-06T01:55:06;14.30;92.70
16627;DHT22;8427;52.204;7.202;2023-08-06T01:57:34;14.30;92.70
16627;DHT22;8427;52.204;7.202;2023-08-06T02:00:02;14.30;92.90
16627;DHT22;8427;52.204;7.202;2023-08-06T02:02:31;14.30;92.90
16627;DHT22;8427;52.204;7.202;2023-08-06T02:05:00;14.40;92.90
16627;DHT22;8427;52.204;7.202;2023-08-06T02:07:29;14.40;92.90
16627;DHT22;8427;52.204;7.202;2023-08-06T02:09:56;14.30;93.00
16627;DHT22;8427;52.204;7.202;2023-08-06T02:12:26;14.20;92.90
16627;DHT22;8427;52.204;7.202;2023-08-06T02:14:54;14.20;92.90
16627;DHT22;8427;52.204;7.202;2023-08-06T02:17:21;14.30;92.90
16627;DHT22;8427;52.204;7.202;2023-08-06T02:19:49;14.40;92.70
16627;DHT22;8427;52.204;7.202;2023-08-06T02:22:17;14.30;92.80
16627;DHT22;8427;52.204;7.202;2023-08-06T02:24:46;14.30;92.70
16627;DHT22;8427;52.204;7.202;2023-08-06T02:27:14;14.30;92.70
16627;DHT22;8427;52.204;7.202;2023-08-06T02:29:43;14.30;92.70
16627;DHT22;8427;52.204;7.202;2023-08-06T02:32:11;14.30;92.70
16627;DHT22;8427;52.204;7.202;2023-08-06T02:34:39;14.30;92.70
16627;DHT22;8427;52.204;7.202;2023-08-06T02:37:07;14.30;92.60
16627;DHT22;8427;52.204;7.202;2023-08-06T02:39:35;14.30;92.60
16627;DHT22;8427;52.204;7.202;2023-08-06T02:42:06;14.30;92.50
16627;DHT22;8427;52.204;7.202;2023-08-06T02:44:35;14.20;92.60
16627;DHT22;8427;52.204;7.202;2023-08-06T02:47:05;14.20;92.60
16627;DHT22;8427;52.204;7.202;2023-08-06T02:49:33;14.10;92.70
16627;DHT22;8427;52.204;7.202;2023-08-06T02:52:01;14.20;92.70
16627;DHT22;8427;52.204;7.202;2023-08-06T02:54:29;14.10;92.80
16627;DHT22;8427;52.204;7.202;2023-08-06T02:56:57;14.10;92.70
16627;DHT22;8427;52.204;7.202;2023-08-06T02:59:25;14.10;92.70
16627;DHT22;8427;52.204;7.202;2023-08-06T03:01:53;14.10;92.70
16627;DHT22;8427;52.204;7.202;2023-08-06T03:04:23;14.10;92.80
16627;DHT22;8427;52.204;7.202;2023-08-06T03:06:51;14.10;92.90
16627;DHT22;8427;52.204;7.202;2023-08-06T03:09:19;14.10;93.00
16627;DHT22;8427;52.204;7.202;2023-08-06T03:11:47;14.20;92.80
16627;DHT22;8427;52.204;7.202;2023-08-06T03:14:16;14.10;92.80
16627;DHT22;8427;52.204;7.202;2023-08-06T03:16:44;14.10;92.70
16627;DHT22;8427;52.204;7.202;2023-08-06T03:19:12;14.10;92.70
16627;DHT22;8427;52.204;7.202;2023-08-06T03:21:41;14.10;92.80
16627;DHT22;8427;52.204;7.202;2023-08-06T03:24:09;14.10;92.90
16627;DHT22;8427;52.204;7.202;2023-08-06T03:26:37;14.10;92.80
16627;DHT22;8427;52.204;7.202;2023-08-06T03:29:05;14.10;92.80
16627;DHT22;8427;52.204;7.202;2023-08-06T03:31:33;14.20;92.90
16627;DHT22;8427;52.204;7.202;2023-08-06T03:34:01;14.20;92.70
16627;DHT22;8427;52.204;7.202;2023-08-06T03:36:29;14.20;92.80
16627;DHT22;8427;52.204;7.202;2023-08-06T03:38:58;14.20;92.90
16627;DHT22;8427;52.204;7.202;2023-08-06T03:41:26;14.20;93.00
16627;DHT22;8427;52.204;7.202;2023-08-06T03:43:54;14.30;93.00
16627;DHT22;8427;52.204;7.202;2023-08-06T03:46:22;14.20;92.90
16627;DHT22;8427;52.204;7.202;2023-08-06T03:48:50;14.20;92.90
16627;DHT22;8427;52.204;7.202;2023-08-06T03:51:18;14.20;92.90
16627;DHT22;8427;52.204;7.202;2023-08-06T03:53:46;14.30;92.80
16627;DHT22;8427;52.204;7.202;2023-08-06T03:56:15;14.20;92.90
16627;DHT22;8427;52.204;7.202;2023-08-06T03:58:43;14.20;92.90
16627;DHT22;8427;52.204;7.202;2023-08-06T04:01:11;14.20;92.70
16627;DHT22;8427;52.204;7.202;2023-08-06T04:03:40;14.20;92.70
16627;DHT22;8427;52.204;7.202;2023-08-06T04:06:08;14.10;92.80
16627;DHT22;8427;52.204;7.202;2023-08-06T04:08:36;14.10;92.80
16627;DHT22;8427;52.204;7.202;2023-08-06T04:11:04;14.10;92.80
16627;DHT22;8427;52.204;7.202;2023-08-06T04:13:33;14.20;92.80
16627;DHT22;8427;52.204;7.202;2023-08-06T04:16:01;14.20;92.70
16627;DHT22;8427;52.204;7.202;2023-08-06T04:18:29;14.10;92.90
16627;DHT22;8427;52.204;7.202;2023-08-06T04:20:57;14.30;92.80
16627;DHT22;8427;52.204;7.202;2023-08-06T04:23:25;14.30;92.90
16627;DHT22;8427;52.204;7.202;2023-08-06T04:25:56;14.20;92.80
16627;DHT22;8427;52.204;7.202;2023-08-06T04:28:24;14.20;92.80
16627;DHT22;8427;52.204;7.202;2023-08-06T04:30:53;14.30;92.80
16627;DHT22;8427;52.204;7.202;2023-08-06T04:33:21;14.30;92.70
16627;DHT22;8427;52.204;7.202;2023-08-06T04:35:54;14.30;92.70
16627;DHT22;8427;52.204;7.202;2023-08-06T04:38:23;14.30;92.60
16627;DHT22;8427;52.204;7.202;2023-08-06T04:40:52;14.40;92.50
16627;DHT22;8427;52.204;7.202;2023-08-06T04:43:20;14.30;92.70
16627;DHT22;8427;52.204;7.202;2023-08-06T04:45:48;14.30;92.50
16627;DHT22;8427;52.204;7.202;2023-08-06T04:48:17;14.30;92.70
16627;DHT22;8427;52.204;7.202;2023-08-06T04:50:46;14.30;92.80
16627;DHT22;8427;52.204;7.202;2023-08-06T04:53:14;14.40;92.70
16627;DHT22;8427;52.204;7.202;2023-08-06T04:55:42;14.50;92.80
16627;DHT22;8427;52.204;7.202;2023-08-06T04:58:10;14.50;92.70
16627;DHT22;8427;52.204;7.202;2023-08-06T05:00:38;14.60;92.80
16627;DHT22;8427;52.204;7.202;2023-08-06T05:03:06;14.60;92.70
16627;DHT22;8427;52.204;7.202;2023-08-06T05:05:36;14.70;92.50
16627;DHT22;8427;52.204;7.202;2023-08-06T05:08:04;14.60;92.40
16627;DHT22;8427;52.204;7.202;2023-08-06T05:10:32;14.80;92.50
16627;DHT22;8427;52.204;7.202;2023-08-06T05:13:00;14.80;92.20
16627;DHT22;8427;52.204;7.202;2023-08-06T05:15:28;14.90;92.10
16627;DHT22;8427;52.204;7.202;2023-08-06T05:17:57;14.90;92.10
16627;DHT22;8427;52.204;7.202;2023-08-06T05:20:25;14.90;92.10
16627;DHT22;8427;52.204;7.202;2023-08-06T05:22:54;15.00;92.10
16627;DHT22;8427;52.204;7.202;2023-08-06T05:25:22;15.10;91.90
16627;DHT22;8427;52.204;7.202;2023-08-06T05:27:50;15.10;91.50
16627;DHT22;8427;52.204;7.202;2023-08-06T05:30:18;15.20;91.40
16627;DHT22;8427;52.204;7.202;2023-08-06T05:32:46;15.30;91.30
16627;DHT22;8427;52.204;7.202;2023-08-06T05:35:14;15.40;91.10
16627;DHT22;8427;52.204;7.202;2023-08-06T05:37:42;15.50;90.80
16627;DHT22;8427;52.204;7.202;2023-08-06T05:40:11;15.50;90.50
16627;DHT22;8427;52.204;7.202;2023-08-06T05:42:39;15.50;90.50
16627;DHT22;8427;52.204;7.202;2023-08-06T05:45:08;15.60;90.40
16627;DHT22;8427;52.204;7.202;2023-08-06T05:47:36;15.60;90.30
16627;DHT22;8427;52.204;7.202;2023-08-06T05:50:06;15.60;90.10
16627;DHT22;8427;52.204;7.202;2023-08-06T05:52:34;15.60;89.90
16627;DHT22;8427;52.204;7.202;2023-08-06T05:55:02;15.60;90.10
16627;DHT22;8427;52.204;7.202;2023-08-06T05:57:31;15.70;90.20
16627;DHT22;8427;52.204;7.202;2023-08-06T06:00:00;15.70;90.00
16627;DHT22;8427;52.204;7.202;2023-08-06T06:02:29;15.60;89.80
16627;DHT22;8427;52.204;7.202;2023-08-06T06:04:57;15.60;90.10
16627;DHT22;8427;52.204;7.202;2023-08-06T06:07:25;15.60;90.20
16627;DHT22;8427;52.204;7.202;2023-08-06T06:09:53;15.60;90.00
16627;DHT22;8427;52.204;7.202;2023-08-06T06:12:21;15.70;90.20
16627;DHT22;8427;52.204;7.202;2023-08-06T06:14:50;15.70;90.30
16627;DHT22;8427;52.204;7.202;2023-08-06T06:17:18;15.80;90.30
16627;DHT22;8427;52.204;7.202;2023-08-06T06:19:46;15.80;89.80
16627;DHT22;8427;52.204;7.202;2023-08-06T06:22:14;15.80;89.80
16627;DHT22;8427;52.204;7.202;2023-08-06T06:24:42;15.80;89.70
16627;DHT22;8427;52.204;7.202;2023-08-06T06:27:10;16.00;89.80
16627;DHT22;8427;52.204;7.202;2023-08-06T06:29:39;16.00;89.60
16627;DHT22;8427;52.204;7.202;2023-08-06T06:32:08;16.00;89.40
16627;DHT22;8427;52.204;7.202;2023-08-06T06:34:36;15.90;89.00
16627;DHT22;8427;52.204;7.202;2023-08-06T06:37:05;15.90;89.20
16627;DHT22;8427;52.204;7.202;2023-08-06T06:39:33;16.00;89.30
16627;DHT22;8427;52.204;7.202;2023-08-06T06:42:01;16.00;89.20
16627;DHT22;8427;52.204;7.202;2023-08-06T06:44:29;16.10;89.00
16627;DHT22;8427;52.204;7.202;2023-08-06T06:46:57;16.20;89.20
16627;DHT22;8427;52.204;7.202;2023-08-06T06:49:26;16.20;89.20
16627;DHT22;8427;52.204;7.202;2023-08-06T06:51:54;16.20;89.30
16627;DHT22;8427;52.204;7.202;2023-08-06T06:54:22;16.20;88.80
16627;DHT22;8427;52.204;7.202;2023-08-06T06:56:50;16.20;88.50
16627;DHT22;8427;52.204;7.202;2023-08-06T06:59:18;16.30;88.60
16627;DHT22;8427;52.204;7.202;2023-08-06T07:01:46;16.40;88.90
16627;DHT22;8427;52.204;7.202;2023-08-06T07:04:14;16.50;88.20
16627;DHT22;8427;52.204;7.202;2023-08-06T07:06:43;16.50;87.70
16627;DHT22;8427;52.204;7.202;2023-08-06T07:09:11;16.60;87.20
16627;DHT22;8427;52.204;7.202;2023-08-06T07:11:39;16.60;87.10
16627;DHT22;8427;52.204;7.202;2023-08-06T07:14:10;16.70;87.40
16627;DHT22;8427;52.204;7.202;2023-08-06T07:16:38;16.90;87.40
16627;DHT22;8427;52.204;7.202;2023-08-06T07:19:06;17.00;87.40
16627;DHT22;8427;52.204;7.202;2023-08-06T07:21:34;17.10;87.10
16627;DHT22;8427;52.204;7.202;2023-08-06T07:24:03;17.20;86.50
16627;DHT22;8427;52.204;7.202;2023-08-06T07:26:31;17.10;86.50
16627;DHT22;8427;52.204;7.202;2023-08-06T07:28:59;17.10;86.50
16627;DHT22;8427;52.204;7.202;2023-08-06T07:31:27;17.20;86.80
16627;DHT22;8427;52.204;7.202;2023-08-06T07:33:55;17.20;85.80
16627;DHT22;8427;52.204;7.202;2023-08-06T07:36:23;17.20;86.60
16627;DHT22;8427;52.204;7.202;2023-08-06T07:38:51;17.20;86.70
16627;DHT22;8427;52.204;7.202;2023-08-06T07:41:23;17.50;86.50
16627;DHT22;8427;52.204;7.202;2023-08-06T07:43:52;17.40;86.30
16627;DHT22;8427;52.204;7.202;2023-08-06T07:46:19;17.60;86.20
16627;DHT22;8427;52.204;7.202;2023-08-06T07:48:48;17.70;85.80
16627;DHT22;8427;52.204;7.202;2023-08-06T07:51:16;17.80;84.70
16627;DHT22;8427;52.204;7.202;2023-08-06T07:53:45;17.60;85.40
16627;DHT22;8427;52.204;7.202;2023-08-06T07:56:13;17.70;84.80
16627;DHT22;8427;52.204;7.202;2023-08-06T07:58:42;17.60;84.90
16627;DHT22;8427;52.204;7.202;2023-08-06T08:01:11;17.60;85.20
16627;DHT22;8427;52.204;7.202;2023-08-06T08:03:39;17.50;85.40
16627;DHT22;8427;52.204;7.202;2023-08-06T08:06:07;17.60;84.60
16627;DHT22;8427;52.204;7.202;2023-08-06T08:08:35;17.50;84.50
16627;DHT22;8427;52.204;7.202;2023-08-06T08:11:05;17.70;85.30
16627;DHT22;8427;52.204;7.202;2023-08-06T08:13:34;17.70;84.80
16627;DHT22;8427;52.204;7.202;2023-08-06T08:16:03;17.70;85.30
16627;DHT22;8427;52.204;7.202;2023-08-06T08:18:31;17.70;85.60
16627;DHT22;8427;52.204;7.202;2023-08-06T08:20:59;17.80;85.50
16627;DHT22;8427;52.204;7.202;2023-08-06T08:23:27;17.90;85.10
16627;DHT22;8427;52.204;7.202;2023-08-06T08:25:58;17.90;85.30
16627;DHT22;8427;52.204;7.202;2023-08-06T08:28:26;17.80;85.20
16627;DHT22;8427;52.204;7.202;2023-08-06T08:30:54;17.80;85.00
16627;DHT22;8427;52.204;7.202;2023-08-06T08:33:23;18.00;85.30
16627;DHT22;8427;52.204;7.202;2023-08-06T08:35:51;18.00;85.50
16627;DHT22;8427;52.204;7.202;2023-08-06T08:38:19;17.90;85.70
16627;DHT22;8427;52.204;7.202;2023-08-06T08:40:51;17.90;86.00
16627;DHT22;8427;52.204;7.202;2023-08-06T08:43:21;18.10;86.70
16627;DHT22;8427;52.204;7.202;2023-08-06T08:45:50;18.20;86.30
16627;DHT22;8427;52.204;7.202;2023-08-06T08:48:19;18.30;85.20
16627;DHT22;8427;52.204;7.202;2023-08-06T08:50:49;18.40;84.80
16627;DHT22;8427;52.204;7.202;2023-08-06T08:53:18;18.60;85.80
16627;DHT22;8427;52.204;7.202;2023-08-06T08:55:48;18.80;85.00
16627;DHT22;8427;52.204;7.202;2023-08-06T08:58:16;18.80;84.90
16627;DHT22;8427;52.204;7.202;2023-08-06T09:00:46;18.80;84.80
16627;DHT22;8427;52.204;7.202;2023-08-06T09:03:16;19.00;84.10
16627;DHT22;8427;52.204;7.202;2023-08-06T09:05:45;19.20;83.50
16627;DHT22;8427;52.204;7.202;2023-08-06T09:08:21;19.20;81.20
16627;DHT22;8427;52.204;7.202;2023-08-06T09:10:52;19.20;80.80
16627;DHT22;8427;52.204;7.202;2023-08-06T09:13:21;19.30;82.20
16627;DHT22;8427;52.204;7.202;2023-08-06T09:15:50;19.40;81.70
16627;DHT22;8427;52.204;7.202;2023-08-06T09:18:24;19.40;81.10
16627;DHT22;8427;52.204;7.202;2023-08-06T09:20:52;19.60;80.00
16627;DHT22;8427;52.204;7.202;2023-08-06T09:23:22;19.70;79.00
16627;DHT22;8427;52.204;7.202;2023-08-06T09:25:54;19.80;79.50
16627;DHT22;8427;52.204;7.202;2023-08-06T09:28:22;20.10;77.60
16627;DHT22;8427;52.204;7.202;2023-08-06T09:30:52;20.00;77.20
16627;DHT22;8427;52.204;7.202;2023-08-06T09:33:22;19.90;77.30
16627;DHT22;8427;52.204;7.202;2023-08-06T09:35:50;20.00;77.40
16627;DHT22;8427;52.204;7.202;2023-08-06T09:38:18;19.80;78.30
16627;DHT22;8427;52.204;7.202;2023-08-06T09:40:47;19.90;79.20
16627;DHT22;8427;52.204;7.202;2023-08-06T09:43:15;20.20;76.60
16627;DHT22;8427;52.204;7.202;2023-08-06T09:45:43;20.20;75.80
16627;DHT22;8427;52.204;7.202;2023-08-06T09:48:11;20.20;77.20
16627;DHT22;8427;52.204;7.202;2023-08-06T09:50:39;20.40;79.80
16627;DHT22;8427;52.204;7.202;2023-08-06T09:53:08;20.50;77.20
16627;DHT22;8427;52.204;7.202;2023-08-06T09:55:36;20.70;77.90
16627;DHT22;8427;52.204;7.202;2023-08-06T09:58:05;20.60;77.00
16627;DHT22;8427;52.204;7.202;2023-08-06T10:00:33;20.70;77.70
16627;DHT22;8427;52.204;7.202;2023-08-06T10:03:05;21.00;77.40
16627;DHT22;8427;52.204;7.202;2023-08-06T10:05:34;21.10;77.40
16627;DHT22;8427;52.204;7.202;2023-08-06T10:08:03;21.30;76.40
16627;DHT22;8427;52.204;7.202;2023-08-06T10:10:31;21.30;75.50
16627;DHT22;8427;52.204;7.202;2023-08-06T10:12:59;21.40;77.10
16627;DHT22;8427;52.204;7.202;2023-08-06T10:15:31;21.30;77.20
16627;DHT22;8427;52.204;7.202;2023-08-06T10:17:59;21.40;77.20
16627;DHT22;8427;52.204;7.202;2023-08-06T10:20:32;21.40;76.10
16627;DHT22;8427;52.204;7.202;2023-08-06T10:23:00;21.30;74.20
16627;DHT22;8427;52.204;7.202;2023-08-06T10:25:31;21.50;76.10
16627;DHT22;8427;52.204;7.202;2023-08-06T10:28:00;21.40;72.30
16627;DHT22;8427;52.204;7.202;2023-08-06T10:30:30;21.50;74.70
16627;DHT22;8427;52.204;7.202;2023-08-06T10:32:59;21.50;72.60
16627;DHT22;8427;52.204;7.202;2023-08-06T10:35:28;21.50;72.70
16627;DHT22;8427;52.204;7.202;2023-08-06T10:38:03;21.60;71.20
16627;DHT22;8427;52.204;7.202;2023-08-06T10:40:31;21.80;69.70
16627;DHT22;8427;52.204;7.202;2023-08-06T10:42:59;21.90;69.60
16627;DHT22;8427;52.204;7.202;2023-08-06T10:45:27;21.80;70.20
16627;DHT22;8427;52.204;7.202;2023-08-06T10:47:58;22.00;69.60
16627;DHT22;8427;52.204;7.202;2023-08-06T10:50:26;21.60;70.30
16627;DHT22;8427;52.204;7.202;2023-08-06T10:52:53;21.50;69.20
16627;DHT22;8427;52.204;7.202;2023-08-06T10:55:22;21.60;71.00
16627;DHT22;8427;52.204;7.202;2023-08-06T10:57:50;21.70;69.50
16627;DHT22;8427;52.204;7.202;2023-08-06T11:00:18;21.50;70.70
16627;DHT22;8427;52.204;7.202;2023-08-06T11:02:46;21.50;72.20
16627;DHT22;8427;52.204;7.202;2023-08-06T11:05:16;21.60;73.00
16627;DHT22;8427;52.204;7.202;2023-08-06T11:07:44;21.50;70.50
16627;DHT22;8427;52.204;7.202;2023-08-06T11:10:12;21.30;72.20
16627;DHT22;8427;52.204;7.202;2023-08-06T11:12:40;21.20;73.20
16627;DHT22;8427;52.204;7.202;2023-08-06T11:15:08;21.20;75.00
16627;DHT22;8427;52.204;7.202;2023-08-06T11:17:36;21.20;75.70
16627;DHT22;8427;52.204;7.202;2023-08-06T11:20:04;21.40;74.80
16627;DHT22;8427;52.204;7.202;2023-08-06T11:22:34;21.30;72.30
16627;DHT22;8427;52.204;7.202;2023-08-06T11:25:03;21.40;76.00
16627;DHT22;8427;52.204;7.202;2023-08-06T11:27:31;21.40;76.20
16627;DHT22;8427;52.204;7.202;2023-08-06T11:29:59;21.40;76.40
16627;DHT22;8427;52.204;7.202;2023-08-06T11:32:26;21.30;76.50
16627;DHT22;8427;52.204;7.202;2023-08-06T11:34:55;21.30;76.70
16627;DHT22;8427;52.204;7.202;2023-08-06T11:37:23;21.10;74.30
16627;DHT22;8427;52.204;7.202;2023-08-06T11:39:53;21.10;77.30
16627;DHT22;8427;52.204;7.202;2023-08-06T11:42:22;21.00;76.80
16627;DHT22;8427;52.204;7.202;2023-08-06T11:44:50;20.70;79.30
16627;DHT22;8427;52.204;7.202;2023-08-06T11:47:18;20.30;80.10
16627;DHT22;8427;52.204;7.202;2023-08-06T11:49:47;20.00;81.00
16627;DHT22;8427;52.204;7.202;2023-08-06T11:52:16;19.70;82.20
16627;DHT22;8427;52.204;7.202;2023-08-06T11:54:46;19.30;82.50
16627;DHT22;8427;52.204;7.202;2023-08-06T11:57:16;19.00;84.00
16627;DHT22;8427;52.204;7.202;2023-08-06T11:59:44;18.90;84.40
16627;DHT22;8427;52.204;7.202;2023-08-06T12:02:12;18.80;84.90
16627;DHT22;8427;52.204;7.202;2023-08-06T12:04:59;18.70;84.60
16627;DHT22;8427;52.204;7.202;2023-08-06T12:07:30;18.60;85.70
16627;DHT22;8427;52.204;7.202;2023-08-06T12:09:58;18.70;86.20
16627;DHT22;8427;52.204;7.202;2023-08-06T12:12:27;18.60;86.10
16627;DHT22;8427;52.204;7.202;2023-08-06T12:14:55;18.60;85.80
16627;DHT22;8427;52.204;7.202;2023-08-06T12:17:24;18.70;86.40
16627;DHT22;8427;52.204;7.202;2023-08-06T12:19:51;18.80;87.30
16627;DHT22;8427;52.204;7.202;2023-08-06T12:22:19;18.90;86.90
16627;DHT22;8427;52.204;7.202;2023-08-06T12:24:50;19.00;86.70
16627;DHT22;8427;52.204;7.202;2023-08-06T12:27:18;19.10;87.00
16627;DHT22;8427;52.204;7.202;2023-08-06T12:29:47;19.20;87.10
16627;DHT22;8427;52.204;7.202;2023-08-06T12:32:15;19.30;87.10
16627;DHT22;8427;52.204;7.202;2023-08-06T12:34:43;19.40;87.00
16627;DHT22;8427;52.204;7.202;2023-08-06T12:37:14;19.50;86.40
16627;DHT22;8427;52.204;7.202;2023-08-06T12:39:41;19.40;85.40
16627;DHT22;8427;52.204;7.202;2023-08-06T12:42:09;19.40;85.00
16627;DHT22;8427;52.204;7.202;2023-08-06T12:44:37;19.60;85.30
16627;DHT22;8427;52.204;7.202;2023-08-06T12:47:07;19.70;84.90
16627;DHT22;8427;52.204;7.202;2023-08-06T12:49:35;20.00;86.50
16627;DHT22;8427;52.204;7.202;2023-08-06T12:52:03;20.20;85.90
16627;DHT22;8427;52.204;7.202;2023-08-06T12:54:33;20.40;84.70
16627;DHT22;8427;52.204;7.202;2023-08-06T12:57:03;20.80;85.30
16627;DHT22;8427;52.204;7.202;2023-08-06T12:59:31;20.90;82.00
16627;DHT22;8427;52.204;7.202;2023-08-06T13:02:00;21.20;81.00
16627;DHT22;8427;52.204;7.202;2023-08-06T13:04:29;21.50;79.70
16627;DHT22;8427;52.204;7.202;2023-08-06T13:06:57;21.70;78.10
16627;DHT22;8427;52.204;7.202;2023-08-06T13:09:25;22.00;78.90
16627;DHT22;8427;52.204;7.202;2023-08-06T13:11:57;22.30;77.50
16627;DHT22;8427;52.204;7.202;2023-08-06T13:14:26;22.30;74.60
16627;DHT22;8427;52.204;7.202;2023-08-06T13:16:55;22.40;77.40
16627;DHT22;8427;52.204;7.202;2023-08-06T13:19:23;22.50;77.70
16627;DHT22;8427;52.204;7.202;2023-08-06T13:22:02;22.50;78.00
16627;DHT22;8427;52.204;7.202;2023-08-06T13:24:31;22.50;76.70
16627;DHT22;8427;52.204;7.202;2023-08-06T13:26:59;22.00;75.50
16627;DHT22;8427;52.204;7.202;2023-08-06T13:29:27;21.90;77.60
16627;DHT22;8427;52.204;7.202;2023-08-06T13:31:55;21.70;75.80
16627;DHT22;8427;52.204;7.202;2023-08-06T13:34:23;21.60;75.80
16627;DHT22;8427;52.204;7.202;2023-08-06T13:36:51;21.60;79.30
16627;DHT22;8427;52.204;7.202;2023-08-06T13:39:20;21.50;78.70
16627;DHT22;8427;52.204;7.202;2023-08-06T13:41:48;21.60;79.70
16627;DHT22;8427;52.204;7.202;2023-08-06T13:44:16;21.30;78.60
16627;DHT22;8427;52.204;7.202;2023-08-06T13:46:44;21.30;77.20
16627;DHT22;8427;52.204;7.202;2023-08-06T13:49:11;21.30;79.10
16627;DHT22;8427;52.204;7.202;2023-08-06T13:51:39;21.40;79.60
16627;DHT22;8427;52.204;7.202;2023-08-06T13:54:07;21.40;77.80
16627;DHT22;8427;52.204;7.202;2023-08-06T13:56:37;21.40;76.00
16627;DHT22;8427;52.204;7.202;2023-08-06T13:59:04;21.50;77.80
16627;DHT22;8427;52.204;7.202;2023-08-06T14:01:33;21.60;79.30
16627;DHT22;8427;52.204;7.202;2023-08-06T14:04:17;21.30;75.40
16627;DHT22;8427;52.204;7.202;2023-08-06T14:06:45;21.40;76.50
16627;DHT22;8427;52.204;7.202;2023-08-06T14:09:13;21.60;77.50
16627;DHT22;8427;52.204;7.202;2023-08-06T14:11:46;21.70;76.20
16627;DHT22;8427;52.204;7.202;2023-08-06T14:14:14;21.60;75.30
16627;DHT22;8427;52.204;7.202;2023-08-06T14:16:42;21.50;75.70
16627;DHT22;8427;52.204;7.202;2023-08-06T14:19:09;21.40;75.00
16627;DHT22;8427;52.204;7.202;2023-08-06T14:21:37;21.10;75.40
16627;DHT22;8427;52.204;7.202;2023-08-06T14:24:05;21.20;78.50
16627;DHT22;8427;52.204;7.202;2023-08-06T14:26:33;21.00;76.50
16627;DHT22;8427;52.204;7.202;2023-08-06T14:29:02;21.10;78.90
16627;DHT22;8427;52.204;7.202;2023-08-06T14:31:30;21.20;78.20
16627;DHT22;8427;52.204;7.202;2023-08-06T14:33:58;21.00;75.30
16627;DHT22;8427;52.204;7.202;2023-08-06T14:36:25;20.80;74.50
16627;DHT22;8427;52.204;7.202;2023-08-06T14:38:53;20.40;75.20
16627;DHT22;8427;52.204;7.202;2023-08-06T14:41:26;20.30;76.10
16627;DHT22;8427;52.204;7.202;2023-08-06T14:43:54;20.20;76.40
16627;DHT22;8427;52.204;7.202;2023-08-06T14:46:23;20.00;76.30
16627;DHT22;8427;52.204;7.202;2023-08-06T14:48:51;19.70;76.80
16627;DHT22;8427;52.204;7.202;2023-08-06T14:51:19;19.40;76.70
16627;DHT22;8427;52.204;7.202;2023-08-06T14:53:47;19.10;78.20
16627;DHT22;8427;52.204;7.202;2023-08-06T14:56:15;19.00;77.30
16627;DHT22;8427;52.204;7.202;2023-08-06T14:58:43;18.90;78.00
16627;DHT22;8427;52.204;7.202;2023-08-06T15:01:12;18.70;77.10
16627;DHT22;8427;52.204;7.202;2023-08-06T15:03:41;18.60;76.80
16627;DHT22;8427;52.204;7.202;2023-08-06T15:06:09;18.50;78.40
16627;DHT22;8427;52.204;7.202;2023-08-06T15:08:37;18.30;79.90
16627;DHT22;8427;52.204;7.202;2023-08-06T15:11:05;18.20;81.30
16627;DHT22;8427;52.204;7.202;2023-08-06T15:13:32;18.30;81.70
16627;DHT22;8427;52.204;7.202;2023-08-06T15:16:00;18.40;82.40
16627;DHT22;8427;52.204;7.202;2023-08-06T15:18:28;18.40;82.40
16627;DHT22;8427;52.204;7.202;2023-08-06T15:20:57;18.40;82.60
16627;DHT22;8427;52.204;7.202;2023-08-06T15:23:25;18.30;83.40
16627;DHT22;8427;52.204;7.202;2023-08-06T15:25:53;18.40;83.40
16627;DHT22;8427;52.204;7.202;2023-08-06T15:28:21;18.20;83.60
16627;DHT22;8427;52.204;7.202;2023-08-06T15:30:50;18.00;84.20
16627;DHT22;8427;52.204;7.202;2023-08-06T15:33:17;17.90;84.70
16627;DHT22;8427;52.204;7.202;2023-08-06T15:35:46;17.80;84.40
16627;DHT22;8427;52.204;7.202;2023-08-06T15:38:15;17.70;85.30
16627;DHT22;8427;52.204;7.202;2023-08-06T15:40:43;17.50;86.10
16627;DHT22;8427;52.204;7.202;2023-08-06T15:43:11;17.40;86.20
16627;DHT22;8427;52.204;7.202;2023-08-06T15:45:39;17.20;87.40
16627;DHT22;8427;52.204;7.202;2023-08-06T15:48:07;17.10;88.10
16627;DHT22;8427;52.204;7.202;2023-08-06T15:50:36;16.90;87.80
16627;DHT22;8427;52.204;7.202;2023-08-06T15:53:04;16.60;88.50